Time;durP1;ratioP1;P1;durP2;ratioP2;P2;SDS_P1;SDS_P2;PMS_P1;PMS_P2;Temp;Humidity;BMP_temperature;BMP_pressure;BME280_temperature;BME280_humidity;BME280_pressure;Samples;Min_cycle;Max_cycle;Signal;HPM_P1;HPM_P2
2022/12/28 11:03:29;;;;;;;10.10;2.50;;;;;;;;;;5149477;27;20276;-79
2022/12/28 11:06:10;;;;;;;8.10;1.97;;;;;;;;;;5129505;28;20225;-77
2022/12/28 11:08:38;;;;;;;8.93;2.50;;;;;;;;;;5129603;28;20225;-77
2022/12/28 11:11:05;;;;;;;9.17;2.37;;;;;;;;;;5129362;27;20201;-79
2022/12/28 11:13:33;;;;;;;10.07;2.70;;;;;;;;;;5129680;28;20292;-79
2022/12/28 11:16:00;;;;;;;11.30;2.80;;;;;;;;;;5129293;28;20197;-78
2022/12/28 11:18:29;;;;;;;12.13;2.83;;;;;;;;;;5128769;28;20196;-77
2022/12/28 11:20:57;;;;;;;12.10;2.67;;;;;;;;;;5128707;28;20194;-78
2022/12/28 11:23:30;;;;;;;14.80;2.47;;;;;;;;;;5128797;28;20295;-77
2022/12/28 11:25:57;;;;;;;14.57;3.00;;;;;;;;;;5128602;28;20233;-78
2022/12/28 11:28:25;;;;;;;11.03;2.60;;;;;;;;;;5146040;27;20246;-77
2022/12/28 11:30:52;;;;;;;11.23;2.60;;;;;;;;;;5148713;27;20714;-79
2022/12/28 11:33:24;;;;;;;11.03;2.60;;;;;;;;;;5148124;27;20239;-78
2022/12/28 11:35:54;;;;;;;12.17;3.00;;;;;;;;;;5148197;27;20224;-76
2022/12/28 11:38:38;;;;;;;11.23;2.80;;;;;;;;;;5147967;27;20220;-79
2022/12/28 11:41:05;;;;;;;15.03;2.57;;;;;;;;;;5146617;27;20188;-77
2022/12/28 11:43:40;;;;;;;11.10;2.87;;;;;;;;;;5148290;27;20212;-78
2022/12/28 11:46:08;;;;;;;9.83;2.47;;;;;;;;;;5147855;27;20227;-77
2022/12/28 11:48:40;;;;;;;11.17;2.40;;;;;;;;;;5145747;27;20184;-78
2022/12/28 11:51:16;;;;;;;11.20;3.03;;;;;;;;;;5148074;27;20619;-77
2022/12/28 11:53:56;;;;;;;10.67;2.77;;;;;;;;;;5146539;27;20699;-77
2022/12/28 11:56:24;;;;;;;11.67;2.73;;;;;;;;;;5145547;27;20200;-78
2022/12/28 11:59:06;;;;;;;11.53;3.00;;;;;;;;;;5147953;27;20192;-78
2022/12/28 12:01:43;;;;;;;8.73;2.70;;;;;;;;;;5128494;28;20317;-78
2022/12/28 12:04:34;;;;;;;10.63;2.60;;;;;;;;;;5128756;28;20219;-77
2022/12/28 12:07:19;;;;;;;8.57;2.17;;;;;;;;;;5113006;28;20221;-77
2022/12/28 12:09:48;;;;;;;7.73;2.30;;;;;;;;;;5127996;28;20231;-77
2022/12/28 12:12:30;;;;;;;9.83;2.40;;;;;;;;;;5128502;28;20213;-78
2022/12/28 12:14:58;;;;;;;9.03;2.20;;;;;;;;;;5111717;28;20289;-77
2022/12/28 12:17:32;;;;;;;7.80;2.27;;;;;;;;;;5114726;28;20285;-78
2022/12/28 12:20:01;;;;;;;12.30;2.70;;;;;;;;;;5117070;27;20285;-79
2022/12/28 12:22:31;;;;;;;10.67;2.83;;;;;;;;;;5131537;27;20249;-78
2022/12/28 12:25:02;;;;;;;6.77;2.47;;;;;;;;;;5133555;27;20220;-78
2022/12/28 12:27:35;;;;;;;9.37;2.30;;;;;;;;;;5131622;27;20228;-78
2022/12/28 12:30:05;;;;;;;6.77;2.30;;;;;;;;;;5133253;27;20621;-78
2022/12/28 12:32:36;;;;;;;4.40;1.90;;;;;;;;;;5133310;27;20246;-78
2022/12/28 12:35:05;;;;;;;8.60;1.90;;;;;;;;;;5133551;27;20634;-78
2022/12/28 12:37:37;;;;;;;5.30;2.20;;;;;;;;;;5133281;27;20236;-78
2022/12/28 12:40:22;;;;;;;9.13;2.47;;;;;;;;;;5133527;27;20238;-78
2022/12/28 12:42:56;;;;;;;7.00;2.30;;;;;;;;;;5123442;27;20240;-74
2022/12/28 12:45:28;;;;;;;6.03;2.07;;;;;;;;;;5133135;27;20629;-75
2022/12/28 12:48:03;;;;;;;6.07;2.07;;;;;;;;;;5133196;27;20193;-77
2022/12/28 12:50:45;;;;;;;8.67;2.40;;;;;;;;;;5131613;27;20224;-77
2022/12/28 12:53:21;;;;;;;9.97;2.07;;;;;;;;;;5129068;27;20197;-77
2022/12/28 12:55:55;;;;;;;5.53;1.90;;;;;;;;;;5131092;27;20216;-77
2022/12/28 12:58:25;;;;;;;8.47;1.90;;;;;;;;;;5133375;27;20242;-75
2022/12/28 13:00:59;;;;;;;7.97;2.20;;;;;;;;;;5133421;27;20220;-78
2022/12/28 13:03:38;;;;;;;6.57;2.33;;;;;;;;;;5089768;28;20221;-77
2022/12/28 13:06:07;;;;;;;4.20;1.90;;;;;;;;;;5089509;28;20354;-78
2022/12/28 13:08:37;;;;;;;7.47;2.20;;;;;;;;;;5091809;28;20190;-78
2022/12/28 13:11:04;;;;;;;7.97;2.00;;;;;;;;;;5091264;28;20249;-78
2022/12/28 13:13:34;;;;;;;5.97;2.33;;;;;;;;;;5091999;28;20678;-77
2022/12/28 13:16:03;;;;;;;8.00;2.67;;;;;;;;;;5091641;28;20199;-77
2022/12/28 13:18:31;;;;;;;8.63;2.07;;;;;;;;;;5092098;28;20252;-78
2022/12/28 13:20:59;;;;;;;6.37;2.10;;;;;;;;;;5091544;28;20239;-78
2022/12/28 13:23:27;;;;;;;6.97;2.23;;;;;;;;;;5088545;28;20659;-77
2022/12/28 13:25:56;;;;;;;6.57;2.17;;;;;;;;;;5090613;28;20667;-77
2022/12/28 13:28:27;;;;;;;7.73;2.20;;;;;;;;;;5091113;28;20225;-77
2022/12/28 13:31:07;;;;;;;4.57;1.90;;;;;;;;;;5091316;28;20246;-77
2022/12/28 13:33:34;;;;;;;4.40;2.07;;;;;;;;;;5090018;28;20234;-76
2022/12/28 13:36:12;;;;;;;8.37;2.27;;;;;;;;;;5090555;28;20278;-78
2022/12/28 13:38:39;;;;;;;4.33;2.20;;;;;;;;;;5091977;28;20274;-77
2022/12/28 13:41:14;;;;;;;7.50;2.20;;;;;;;;;;5091312;28;20234;-77
2022/12/28 13:43:54;;;;;;;7.43;2.10;;;;;;;;;;5086312;28;21063;-77
2022/12/28 13:46:21;;;;;;;6.10;2.20;;;;;;;;;;5091557;28;20229;-77
2022/12/28 13:48:51;;;;;;;6.63;2.70;;;;;;;;;;5091359;28;20282;-76
2022/12/28 13:51:19;;;;;;;8.33;2.60;;;;;;;;;;5090921;28;20297;-77
2022/12/28 13:53:48;;;;;;;4.90;1.90;;;;;;;;;;5090951;28;20222;-78
2022/12/28 13:56:17;;;;;;;3.87;2.00;;;;;;;;;;5090796;28;20222;-78
2022/12/28 13:58:47;;;;;;;7.43;2.40;;;;;;;;;;5092168;28;20222;-79
2022/12/28 14:01:16;;;;;;;5.13;1.87;;;;;;;;;;5097139;27;20721;-78
2022/12/28 14:03:43;;;;;;;6.43;2.20;;;;;;;;;;5133019;27;20279;-78
2022/12/28 14:06:11;;;;;;;6.70;2.33;;;;;;;;;;5132415;27;20224;-79
2022/12/28 14:08:39;;;;;;;4.97;2.20;;;;;;;;;;5132854;27;20677;-77
2022/12/28 14:11:07;;;;;;;6.10;2.17;;;;;;;;;;5132556;27;20192;-79
2022/12/28 14:13:36;;;;;;;6.27;2.33;;;;;;;;;;5132894;27;20593;-78
2022/12/28 14:16:04;;;;;;;4.07;2.00;;;;;;;;;;5132969;27;20228;-80
2022/12/28 14:18:33;;;;;;;4.87;1.77;;;;;;;;;;5133030;27;20193;-77
2022/12/28 14:21:01;;;;;;;7.13;1.97;;;;;;;;;;5132336;27;20578;-77
2022/12/28 14:23:29;;;;;;;3.03;1.70;;;;;;;;;;5132253;27;20220;-79
2022/12/28 14:25:58;;;;;;;5.53;1.83;;;;;;;;;;5132847;27;20227;-78
2022/12/28 14:28:28;;;;;;;6.33;1.93;;;;;;;;;;5133004;27;20325;-79
2022/12/28 14:30:57;;;;;;;4.33;1.93;;;;;;;;;;5132884;27;20650;-79
2022/12/28 14:33:25;;;;;;;4.00;1.53;;;;;;;;;;5132633;27;20232;-78
2022/12/28 14:35:54;;;;;;;2.97;1.57;;;;;;;;;;5128376;27;20239;-80
2022/12/28 14:38:23;;;;;;;4.37;1.90;;;;;;;;;;5130949;27;20633;-79
2022/12/28 14:40:54;;;;;;;4.03;2.10;;;;;;;;;;5144732;27;20544;-78
2022/12/28 14:43:24;;;;;;;4.20;1.70;;;;;;;;;;5130193;27;20220;-78
2022/12/28 14:45:51;;;;;;;2.87;1.87;;;;;;;;;;5130504;27;20277;-79
2022/12/28 14:48:24;;;;;;;3.77;1.70;;;;;;;;;;5130339;27;20188;-79
2022/12/28 14:50:59;;;;;;;2.60;1.60;;;;;;;;;;5128211;27;20192;-78
2022/12/28 14:53:26;;;;;;;2.57;1.63;;;;;;;;;;5130792;27;20224;-79
2022/12/28 14:55:56;;;;;;;4.00;1.90;;;;;;;;;;5130356;27;20192;-77
2022/12/28 14:58:25;;;;;;;3.70;1.50;;;;;;;;;;5131000;27;20224;-78
2022/12/28 15:00:57;;;;;;;4.17;2.13;;;;;;;;;;5136131;27;20653;-79
2022/12/28 15:03:27;;;;;;;3.33;1.80;;;;;;;;;;5134647;27;20258;-79
2022/12/28 15:05:57;;;;;;;3.37;1.90;;;;;;;;;;5141603;27;20755;-78
2022/12/28 15:08:26;;;;;;;4.10;1.57;;;;;;;;;;5142153;27;20196;-78
2022/12/28 15:10:54;;;;;;;3.53;1.77;;;;;;;;;;5141919;27;20193;-78
2022/12/28 15:13:22;;;;;;;4.97;1.87;;;;;;;;;;5135128;27;20276;-81
2022/12/28 15:15:56;;;;;;;3.50;1.80;;;;;;;;;;5140451;27;20199;-79
2022/12/28 15:18:23;;;;;;;3.77;1.77;;;;;;;;;;5127232;28;20284;-79
2022/12/28 15:20:52;;;;;;;3.07;1.80;;;;;;;;;;5130439;28;20289;-79
2022/12/28 15:23:19;;;;;;;3.07;1.60;;;;;;;;;;5130251;28;20260;-79
2022/12/28 15:25:47;;;;;;;3.13;1.60;;;;;;;;;;5130279;28;20609;-78
2022/12/28 15:28:15;;;;;;;3.83;2.03;;;;;;;;;;5130525;28;20316;-79
2022/12/28 15:30:42;;;;;;;2.47;1.70;;;;;;;;;;5130561;28;20274;-79
2022/12/28 15:33:10;;;;;;;4.10;2.00;;;;;;;;;;5129863;28;20265;-79
2022/12/28 15:35:37;;;;;;;4.43;1.80;;;;;;;;;;5130274;28;20221;-78
2022/12/28 15:38:05;;;;;;;6.57;2.63;;;;;;;;;;5130529;28;20721;-78
2022/12/28 15:40:33;;;;;;;2.63;1.87;;;;;;;;;;5130425;28;20220;-77
2022/12/28 15:43:00;;;;;;;4.03;2.10;;;;;;;;;;5129898;28;20671;-76
2022/12/28 15:45:27;;;;;;;3.20;1.63;;;;;;;;;;5130844;28;20215;-78
2022/12/28 15:47:54;;;;;;;3.63;2.10;;;;;;;;;;5129954;27;20232;-77
2022/12/28 15:50:22;;;;;;;3.00;1.90;;;;;;;;;;5134410;27;20280;-77
2022/12/28 15:52:49;;;;;;;3.40;1.60;;;;;;;;;;5134279;27;20234;-79
2022/12/28 15:55:18;;;;;;;4.73;1.63;;;;;;;;;;5130415;27;20725;-77
2022/12/28 15:57:45;;;;;;;2.77;1.70;;;;;;;;;;5134864;27;20284;-76
2022/12/28 16:00:17;;;;;;;2.90;1.80;;;;;;;;;;5134853;27;20288;-79
2022/12/28 16:02:45;;;;;;;3.33;1.43;;;;;;;;;;5133970;27;20232;-77
2022/12/28 16:05:12;;;;;;;2.07;1.50;;;;;;;;;;5135039;27;20192;-78
2022/12/28 16:07:39;;;;;;;2.63;1.50;;;;;;;;;;5135149;27;20221;-79
2022/12/28 16:10:07;;;;;;;2.77;1.90;;;;;;;;;;5135089;27;20221;-78
2022/12/28 16:12:36;;;;;;;3.23;1.53;;;;;;;;;;5134448;27;20249;-80
2022/12/28 16:15:03;;;;;;;3.97;1.60;;;;;;;;;;5135148;27;20634;-80
2022/12/28 16:17:30;;;;;;;3.87;2.00;;;;;;;;;;5134807;27;20277;-77
2022/12/28 16:19:57;;;;;;;3.87;1.80;;;;;;;;;;5134342;27;20235;-77
2022/12/28 16:22:25;;;;;;;2.53;1.20;;;;;;;;;;5134826;27;20239;-77
2022/12/28 16:24:52;;;;;;;2.87;1.23;;;;;;;;;;5134710;27;20315;-78
2022/12/28 16:27:19;;;;;;;2.30;1.20;;;;;;;;;;5134228;27;20240;-77
2022/12/28 16:29:49;;;;;;;2.27;1.20;;;;;;;;;;5134478;27;20303;-78
2022/12/28 16:32:16;;;;;;;2.77;1.20;;;;;;;;;;5134722;27;20647;-78
2022/12/28 16:34:43;;;;;;;1.30;1.00;;;;;;;;;;5134349;27;20669;-78
2022/12/28 16:37:10;;;;;;;3.60;1.33;;;;;;;;;;5133488;27;20238;-77
2022/12/28 16:39:38;;;;;;;2.07;1.20;;;;;;;;;;5134339;27;20189;-78
2022/12/28 16:42:07;;;;;;;1.33;1.13;;;;;;;;;;5134200;27;20221;-78
2022/12/28 16:44:35;;;;;;;3.63;1.50;;;;;;;;;;5133943;27;20221;-77
2022/12/28 16:47:04;;;;;;;3.47;2.00;;;;;;;;;;5133600;27;20189;-76
2022/12/28 16:49:31;;;;;;;1.73;1.33;;;;;;;;;;5134097;27;20224;-77
2022/12/28 16:51:59;;;;;;;1.77;1.37;;;;;;;;;;5133693;27;20233;-78
2022/12/28 16:54:27;;;;;;;2.90;1.20;;;;;;;;;;5134372;27;20228;-77
2022/12/28 16:56:54;;;;;;;2.70;1.00;;;;;;;;;;5134162;27;20231;-77
2022/12/28 16:59:24;;;;;;;1.80;1.20;;;;;;;;;;5131492;27;20217;-77
2022/12/28 17:01:51;;;;;;;3.20;1.07;;;;;;;;;;5143458;27;20217;-79
2022/12/28 17:04:20;;;;;;;2.10;1.40;;;;;;;;;;5133715;27;20692;-77
2022/12/28 17:06:49;;;;;;;2.60;1.10;;;;;;;;;;5133251;27;20231;-78
2022/12/28 17:09:17;;;;;;;2.33;1.10;;;;;;;;;;5133524;27;20260;-78
2022/12/28 17:11:46;;;;;;;1.40;1.10;;;;;;;;;;5133694;27;20253;-79
2022/12/28 17:14:13;;;;;;;1.80;1.13;;;;;;;;;;5133006;27;20227;-78
2022/12/28 17:16:41;;;;;;;2.87;1.00;;;;;;;;;;5133897;27;20220;-78
2022/12/28 17:19:08;;;;;;;2.43;1.20;;;;;;;;;;5133523;27;20221;-77
2022/12/28 17:21:36;;;;;;;2.87;1.30;;;;;;;;;;5133615;27;20225;-77
2022/12/28 17:24:04;;;;;;;2.57;1.20;;;;;;;;;;5132997;27;20245;-76
2022/12/28 17:26:31;;;;;;;3.10;1.07;;;;;;;;;;5136290;27;20219;-76
2022/12/28 17:28:59;;;;;;;1.80;1.50;;;;;;;;;;5140047;27;20696;-77
2022/12/28 17:31:26;;;;;;;4.63;1.60;;;;;;;;;;5142822;27;20225;-78
2022/12/28 17:33:54;;;;;;;2.10;1.37;;;;;;;;;;5141580;27;20216;-77
2022/12/28 17:36:22;;;;;;;3.63;1.50;;;;;;;;;;5142407;27;20232;-77
2022/12/28 17:38:50;;;;;;;2.93;1.50;;;;;;;;;;5134568;27;20201;-77
2022/12/28 17:41:19;;;;;;;3.50;1.50;;;;;;;;;;5138339;27;20644;-77
2022/12/28 17:43:47;;;;;;;4.63;1.30;;;;;;;;;;5139371;27;20300;-77
2022/12/28 17:46:14;;;;;;;4.33;2.20;;;;;;;;;;5138073;27;20193;-77
2022/12/28 17:48:41;;;;;;;3.57;2.40;;;;;;;;;;5142192;27;20193;-77
2022/12/28 17:51:09;;;;;;;4.70;2.50;;;;;;;;;;5132969;27;20242;-76
2022/12/28 17:53:37;;;;;;;4.50;2.00;;;;;;;;;;5132748;27;20216;-78
2022/12/28 17:56:06;;;;;;;2.93;1.47;;;;;;;;;;5132533;27;20224;-77
2022/12/28 17:58:33;;;;;;;4.20;2.00;;;;;;;;;;5132631;27;20213;-78
2022/12/28 18:01:01;;;;;;;3.40;1.57;;;;;;;;;;5132628;27;20209;-77
2022/12/28 18:03:28;;;;;;;3.80;1.40;;;;;;;;;;5133047;27;20265;-77
2022/12/28 18:05:55;;;;;;;4.73;1.70;;;;;;;;;;5132347;27;20193;-77
2022/12/28 18:08:23;;;;;;;4.07;1.80;;;;;;;;;;5133680;27;20223;-78
2022/12/28 18:10:50;;;;;;;6.87;1.70;;;;;;;;;;5132649;27;20193;-77
2022/12/28 18:13:19;;;;;;;8.17;2.40;;;;;;;;;;5132488;27;20240;-77
2022/12/28 18:15:47;;;;;;;4.03;2.00;;;;;;;;;;5132776;27;20236;-77
2022/12/28 18:18:15;;;;;;;7.70;2.00;;;;;;;;;;5133044;27;20193;-77
2022/12/28 18:20:42;;;;;;;5.80;1.93;;;;;;;;;;5133376;27;20250;-77
2022/12/28 18:23:09;;;;;;;7.07;2.73;;;;;;;;;;5132542;27;20692;-77
2022/12/28 18:25:37;;;;;;;7.53;2.97;;;;;;;;;;5132478;27;20225;-78
2022/12/28 18:28:04;;;;;;;7.60;3.03;;;;;;;;;;5132449;27;20201;-77
2022/12/28 18:30:33;;;;;;;8.63;3.00;;;;;;;;;;5133098;27;20229;-77
2022/12/28 18:33:00;;;;;;;8.50;2.37;;;;;;;;;;5132434;27;20229;-77
2022/12/28 18:35:28;;;;;;;9.73;2.80;;;;;;;;;;5132612;27;20813;-77
2022/12/28 18:37:55;;;;;;;8.30;2.60;;;;;;;;;;5132663;27;20197;-78
2022/12/28 18:40:23;;;;;;;12.87;3.87;;;;;;;;;;5131818;27;20217;-76
2022/12/28 18:42:50;;;;;;;14.80;3.47;;;;;;;;;;5131993;27;20575;-77
2022/12/28 18:45:18;;;;;;;13.97;3.30;;;;;;;;;;5132261;27;20273;-76
2022/12/28 18:47:46;;;;;;;12.27;3.60;;;;;;;;;;5132345;27;20212;-77
2022/12/28 18:50:14;;;;;;;14.47;3.23;;;;;;;;;;5132489;27;20216;-77
2022/12/28 18:52:41;;;;;;;14.00;3.30;;;;;;;;;;5132046;27;20696;-77
2022/12/28 18:55:09;;;;;;;15.23;3.47;;;;;;;;;;5131997;27;20231;-77
2022/12/28 18:57:36;;;;;;;16.33;3.50;;;;;;;;;;5132556;27;20243;-77
2022/12/28 19:00:04;;;;;;;18.50;4.07;;;;;;;;;;5132174;27;20217;-78
2022/12/28 19:02:31;;;;;;;17.27;3.30;;;;;;;;;;5131863;28;20272;-78
2022/12/28 19:05:00;;;;;;;17.23;3.67;;;;;;;;;;5131803;28;20252;-76
2022/12/28 19:07:27;;;;;;;15.80;3.47;;;;;;;;;;5131820;28;20232;-76
2022/12/28 19:10:14;;;;;;;18.00;3.60;;;;;;;;;;5131806;28;20221;-77
2022/12/28 19:12:42;;;;;;;18.10;3.47;;;;;;;;;;5132155;28;20246;-77
2022/12/28 19:15:10;;;;;;;18.07;3.20;;;;;;;;;;5132491;28;20220;-77
2022/12/28 19:17:37;;;;;;;18.70;3.87;;;;;;;;;;5132068;28;20224;-76
2022/12/28 19:20:06;;;;;;;17.83;3.30;;;;;;;;;;5131954;28;20189;-77
2022/12/28 19:22:33;;;;;;;15.57;4.17;;;;;;;;;;5132082;27;20220;-77
2022/12/28 19:25:01;;;;;;;22.70;4.17;;;;;;;;;;5134908;27;20252;-77
2022/12/28 19:27:28;;;;;;;18.73;3.90;;;;;;;;;;5126364;27;20197;-78
2022/12/28 19:29:55;;;;;;;18.80;3.97;;;;;;;;;;5132351;27;20778;-77
2022/12/28 19:32:22;;;;;;;23.40;3.80;;;;;;;;;;5133400;27;20227;-78
2022/12/28 19:34:50;;;;;;;19.90;3.93;;;;;;;;;;5133826;27;20232;-78
2022/12/28 19:37:18;;;;;;;20.03;3.63;;;;;;;;;;5133978;27;20205;-77
2022/12/28 19:39:45;;;;;;;16.47;3.70;;;;;;;;;;5133071;27;20204;-76
2022/12/28 19:42:13;;;;;;;16.83;3.70;;;;;;;;;;5134356;27;20681;-77
2022/12/28 19:44:40;;;;;;;14.90;3.33;;;;;;;;;;5132981;27;20656;-77
2022/12/28 19:47:07;;;;;;;15.00;3.27;;;;;;;;;;5134453;27;20665;-77
2022/12/28 19:49:34;;;;;;;15.17;3.30;;;;;;;;;;5133063;27;20281;-77
2022/12/28 19:52:02;;;;;;;21.80;4.20;;;;;;;;;;5133828;27;20222;-75
2022/12/28 19:54:30;;;;;;;16.43;3.20;;;;;;;;;;5132515;27;20197;-78
2022/12/28 19:56:57;;;;;;;17.27;3.60;;;;;;;;;;5133770;27;20205;-78
2022/12/28 19:59:25;;;;;;;15.50;3.67;;;;;;;;;;5133304;27;20197;-78
2022/12/28 20:01:52;;;;;;;23.60;3.80;;;;;;;;;;5125636;27;20253;-77
2022/12/28 20:04:19;;;;;;;18.47;3.33;;;;;;;;;;5132803;27;20315;-78
2022/12/28 20:06:46;;;;;;;18.17;3.30;;;;;;;;;;5133193;27;20233;-77
2022/12/28 20:09:14;;;;;;;15.67;3.27;;;;;;;;;;5133041;27;20220;-78
2022/12/28 20:11:43;;;;;;;15.73;3.83;;;;;;;;;;5133218;27;20197;-77
2022/12/28 20:14:11;;;;;;;19.60;3.80;;;;;;;;;;5134002;27;20239;-77
2022/12/28 20:16:39;;;;;;;21.57;3.47;;;;;;;;;;5135370;27;20204;-77
2022/12/28 20:19:07;;;;;;;21.13;3.40;;;;;;;;;;5135355;27;20232;-78
2022/12/28 20:21:35;;;;;;;21.53;3.87;;;;;;;;;;5135072;27;20277;-77
2022/12/28 20:24:02;;;;;;;21.73;4.20;;;;;;;;;;5134517;27;20194;-77
2022/12/28 20:26:30;;;;;;;18.33;3.93;;;;;;;;;;5135063;27;20228;-78
2022/12/28 20:28:59;;;;;;;18.67;4.07;;;;;;;;;;5135058;27;20238;-79
2022/12/28 20:31:27;;;;;;;19.53;4.40;;;;;;;;;;5135383;27;20193;-78
2022/12/28 20:33:54;;;;;;;15.67;3.50;;;;;;;;;;5134552;27;20193;-78
2022/12/28 20:36:22;;;;;;;22.23;4.30;;;;;;;;;;5134276;27;20242;-77
2022/12/28 20:38:50;;;;;;;18.13;3.20;;;;;;;;;;5135034;27;20620;-78
2022/12/28 20:44:01;;;;;;;21.40;4.07;;;;;;;;;;5133452;27;20219;-76
2022/12/28 20:46:28;;;;;;;18.97;3.60;;;;;;;;;;5134956;27;20195;-77
2022/12/28 20:48:57;;;;;;;20.30;3.97;;;;;;;;;;5134633;27;20227;-76
2022/12/28 20:51:24;;;;;;;22.93;4.07;;;;;;;;;;5134007;27;20689;-78
2022/12/28 20:53:51;;;;;;;21.40;3.83;;;;;;;;;;5134157;27;20232;-78
2022/12/28 20:56:19;;;;;;;18.57;4.00;;;;;;;;;;5134428;27;20225;-79
2022/12/28 20:58:46;;;;;;;14.43;3.53;;;;;;;;;;5133991;27;20193;-77
2022/12/28 21:01:15;;;;;;;15.93;3.40;;;;;;;;;;5134228;27;20216;-78
2022/12/28 21:03:43;;;;;;;12.17;2.33;;;;;;;;;;5134265;27;20221;-78
2022/12/28 21:06:10;;;;;;;7.37;1.83;;;;;;;;;;5133674;27;20374;-78
2022/12/28 21:08:37;;;;;;;6.80;1.50;;;;;;;;;;5134569;27;20632;-78
2022/12/28 21:11:05;;;;;;;8.50;1.73;;;;;;;;;;5134223;27;20227;-78
2022/12/28 21:13:32;;;;;;;7.23;1.80;;;;;;;;;;5134303;27;20217;-77
2022/12/28 21:15:59;;;;;;;7.63;1.90;;;;;;;;;;5134347;27;20236;-78
2022/12/28 21:18:28;;;;;;;5.53;1.43;;;;;;;;;;5133779;27;20250;-77
2022/12/28 21:20:56;;;;;;;7.57;1.40;;;;;;;;;;5133647;27;20220;-77
2022/12/28 21:23:24;;;;;;;10.93;1.47;;;;;;;;;;5134184;27;20193;-77
2022/12/28 21:25:51;;;;;;;10.47;2.30;;;;;;;;;;5133700;27;20256;-78
2022/12/28 21:28:18;;;;;;;8.77;2.30;;;;;;;;;;5133537;27;20292;-76
2022/12/28 21:30:53;;;;;;;12.13;2.00;;;;;;;;;;5134271;27;20539;-78
2022/12/28 21:33:20;;;;;;;9.30;2.13;;;;;;;;;;5133085;27;20192;-78
2022/12/28 21:35:58;;;;;;;13.17;2.93;;;;;;;;;;5133002;27;20288;-78
2022/12/28 21:38:25;;;;;;;15.13;2.90;;;;;;;;;;5133239;27;20224;-77
2022/12/28 21:40:59;;;;;;;10.53;2.23;;;;;;;;;;5133791;27;20344;-78
2022/12/28 21:43:26;;;;;;;12.67;1.93;;;;;;;;;;5133653;27;20285;-77
2022/12/28 21:45:57;;;;;;;11.27;2.50;;;;;;;;;;5132678;27;20704;-78
2022/12/28 21:48:24;;;;;;;10.87;2.40;;;;;;;;;;5133541;27;20197;-78
2022/12/28 21:50:52;;;;;;;13.37;2.33;;;;;;;;;;5132739;27;20231;-78
2022/12/28 21:53:20;;;;;;;9.33;1.60;;;;;;;;;;5133255;27;20291;-78
2022/12/28 21:55:48;;;;;;;9.27;1.90;;;;;;;;;;5132829;27;20279;-78
2022/12/28 21:58:15;;;;;;;9.53;1.70;;;;;;;;;;5132814;27;20212;-78
2022/12/28 22:06:17;;;;;;;8.67;1.77;;;;;;;;;;5069412;28;20332;-77
2022/12/28 22:14:14;;;;;;;13.40;1.97;;;;;;;;;;5069730;28;20225;-77
2022/12/28 22:16:41;;;;;;;14.43;2.23;;;;;;;;;;5069339;28;20226;-78
2022/12/28 22:19:08;;;;;;;14.83;2.27;;;;;;;;;;5068954;28;20234;-78
2022/12/28 22:21:36;;;;;;;13.70;2.53;;;;;;;;;;5069301;28;20742;-75
2022/12/28 22:24:04;;;;;;;13.43;2.30;;;;;;;;;;5069242;28;20226;-78
2022/12/28 22:26:31;;;;;;;11.93;2.00;;;;;;;;;;5068818;28;20258;-77
2022/12/28 22:28:59;;;;;;;9.37;2.27;;;;;;;;;;5069123;28;20671;-77
2022/12/28 22:31:26;;;;;;;16.40;2.70;;;;;;;;;;5069058;28;20227;-76
2022/12/28 22:33:55;;;;;;;13.43;2.43;;;;;;;;;;5068215;28;20285;-77
2022/12/28 22:36:22;;;;;;;9.70;2.80;;;;;;;;;;5068636;28;20741;-76
2022/12/28 22:38:49;;;;;;;16.23;2.43;;;;;;;;;;5069013;28;20252;-75
2022/12/28 22:41:18;;;;;;;17.13;2.87;;;;;;;;;;5130259;27;20725;-76
2022/12/28 22:43:49;;;;;;;15.07;2.67;;;;;;;;;;5132870;27;20234;-76
2022/12/28 22:46:16;;;;;;;14.67;2.03;;;;;;;;;;5132027;27;20297;-78
2022/12/28 22:48:43;;;;;;;12.00;1.90;;;;;;;;;;5132290;27;20276;-79
2022/12/28 22:51:12;;;;;;;15.50;2.50;;;;;;;;;;5132435;27;20736;-78
2022/12/28 22:53:39;;;;;;;13.97;2.23;;;;;;;;;;5132044;27;20229;-78
2022/12/28 22:56:07;;;;;;;14.80;3.40;;;;;;;;;;5132075;27;20726;-77
2022/12/28 22:58:36;;;;;;;14.47;2.50;;;;;;;;;;5132061;27;20216;-77
2022/12/28 23:01:04;;;;;;;16.20;2.83;;;;;;;;;;5131624;27;20249;-79
2022/12/28 23:03:31;;;;;;;15.80;2.13;;;;;;;;;;5131767;28;20221;-78
2022/12/28 23:05:59;;;;;;;17.23;2.77;;;;;;;;;;5131651;28;20278;-78
2022/12/28 23:08:26;;;;;;;17.70;2.97;;;;;;;;;;5132340;28;20227;-78
2022/12/28 23:10:54;;;;;;;20.40;2.80;;;;;;;;;;5132055;28;20261;-77
2022/12/28 23:13:21;;;;;;;18.80;2.97;;;;;;;;;;5132409;28;20220;-78
2022/12/28 23:15:55;;;;;;;19.00;3.23;;;;;;;;;;5131715;28;20292;-76
2022/12/28 23:29:22;;;;;;;19.17;3.00;;;;;;;;;;5131943;28;20839;-77
2022/12/28 23:31:50;;;;;;;20.47;3.10;;;;;;;;;;5131600;28;20306;-76
2022/12/28 23:34:18;;;;;;;19.27;3.13;;;;;;;;;;5132107;28;20200;-76
2022/12/28 23:36:45;;;;;;;18.23;3.33;;;;;;;;;;5132615;28;20221;-76
2022/12/28 23:39:12;;;;;;;21.77;3.30;;;;;;;;;;5131716;28;20225;-76
2022/12/28 23:41:48;;;;;;;23.87;3.20;;;;;;;;;;5132201;28;20253;-76
2022/12/28 23:44:16;;;;;;;19.90;2.97;;;;;;;;;;5132581;28;20612;-76
2022/12/28 23:46:43;;;;;;;24.43;3.17;;;;;;;;;;5131397;28;20274;-77
2022/12/28 23:49:12;;;;;;;17.07;3.30;;;;;;;;;;5132006;28;20233;-76
2022/12/28 23:51:40;;;;;;;19.43;3.07;;;;;;;;;;5131807;28;20202;-76
2022/12/28 23:54:07;;;;;;;17.13;2.60;;;;;;;;;;5132107;28;20204;-76
2022/12/28 23:56:34;;;;;;;21.63;3.27;;;;;;;;;;5132261;28;20232;-76
2022/12/28 23:59:03;;;;;;;21.07;2.77;;;;;;;;;;5131724;28;20224;-76
